Startpagina
METAR-TAF:

METAR-TAF

Vliegvelden :

Lusaka, Zambia

Kenneth Kaunda International Airport

breedte: 15-19-51S, lengte: 028-27-09E, hoogte: 1152 m

Actueel weer

Dit bericht is 1 uur en het 9 minuten geleden gemaakt, om 23:00 UTC
Wind 3 kt uit variabele richting
Temperatuur 10°C
Vochtigheid 87%
Druk 1025 hPa
Zicht 10 km of meer
geen wolken onder 1500 m en geen cumulonimbus

METAR: FLKK 272300Z VRB03KT CAVOK 10/08 Q1025

Tijdstip: 02:09 (00:09 UTC)

Verwachting

Dit bericht is 2 uur en het 9 minuten geleden gemaakt, om 22:00 UTC
Verwachting geldig van 28 om 00 UTC tot 29 om 06 UTC
Wind 10 kt uit het zuidoosten
Zicht 10 km of meer
Gebroken wolken op 4000 ft
Wijzigt naar
van 28 om 00 UTC tot 28 om 04 UTC
Wind 10 kt uit het oosten
Zicht 10 km of meer
Verspreide wolken op 2000 ft
Van 28 om 1200 UTC
Wind 10 kt uit het oostnoordoosten
Zicht 10 km of meer
geen wolken onder 1500 m en geen cumulonimbus

TAF: FLKK 272200Z 2800/2906 13010KT 9999 BKN040 BECMG 2800/2804 10010KT 9999 SCT020 FM281200 07010KT CAVOK

Waarnemingen en weersverwachtingen van meer dan 4000 vliegvelden (METAR en TAF).

De beschikbare stations zijn de gele en rode punten op de kaart.

Ga met uw muis naar het station om de naam te zien.

Klik dan om waarnemingen en weersverwachtingen te zien.

kaart wijzigen: klik op de groene knoppen met een zwart kruis om in te zoomen, op de groene knop met een streepje om uit te zoomen of op de groene pijlen voor aangrenzende kaarten.


METAR-TAF: